Time;durP1;ratioP1;P1;durP2;ratioP2;P2;SDS_P1;SDS_P2;PMS_P1;PMS_P2;Temp;Humidity;BMP_temperature;BMP_pressure;BME280_temperature;BME280_humidity;BME280_pressure;Samples;Min_cycle;Max_cycle;Signal;HPM_P1;HPM_P2
2021/06/05 00:00:32;;;;;;;3.58;0.80;;;;;;;;;;5104178;28;20035;-68
2021/06/05 00:03:01;;;;;;;14.82;2.42;;;;;;;;;;5100395;28;20077;-68
2021/06/05 00:05:30;;;;;;;4.85;1.30;;;;;;;;;;5106779;27;20027;-68
2021/06/05 00:07:58;;;;;;;4.45;1.23;;;;;;;;;;5100156;28;20032;-68
2021/06/05 00:10:30;;;;;;;4.72;0.70;;;;;;;;;;5108267;28;20020;-68
2021/06/05 00:12:57;;;;;;;17.15;5.85;;;;;;;;;;5113325;28;20054;-68
2021/06/05 00:15:27;;;;;;;3.75;0.90;;;;;;;;;;5103248;28;20046;-68
2021/06/05 00:17:54;;;;;;;2.28;0.80;;;;;;;;;;5113068;28;20031;-67
2021/06/05 00:20:22;;;;;;;2.95;1.15;;;;;;;;;;5102217;28;20099;-67
2021/06/05 00:22:49;;;;;;;7.72;0.98;;;;;;;;;;5103472;28;20043;-67
2021/06/05 00:25:17;;;;;;;1.65;0.60;;;;;;;;;;5103417;27;20024;-68
2021/06/05 00:27:44;;;;;;;3.47;0.90;;;;;;;;;;5108906;28;20100;-68
2021/06/05 00:30:11;;;;;;;3.92;1.23;;;;;;;;;;5096992;28;20028;-68
2021/06/05 00:32:38;;;;;;;2.05;1.05;;;;;;;;;;5108445;28;20479;-68
2021/06/05 00:35:06;;;;;;;4.97;1.00;;;;;;;;;;5093350;28;20043;-68
2021/06/05 00:37:33;;;;;;;3.35;1.02;;;;;;;;;;5096652;28;20032;-68
2021/06/05 00:40:00;;;;;;;4.70;1.23;;;;;;;;;;5092842;28;20031;-68
2021/06/05 00:42:27;;;;;;;3.17;1.17;;;;;;;;;;5109349;28;20024;-68
2021/06/05 00:44:54;;;;;;;3.78;1.33;;;;;;;;;;5109994;28;20507;-67
2021/06/05 00:47:21;;;;;;;2.10;0.80;;;;;;;;;;5105781;28;20023;-68
2021/06/05 00:49:49;;;;;;;5.47;1.13;;;;;;;;;;5106837;28;20034;-68
2021/06/05 00:52:17;;;;;;;8.48;1.27;;;;;;;;;;5096677;28;20031;-68
2021/06/05 00:54:44;;;;;;;3.92;1.10;;;;;;;;;;5098919;28;20461;-68
2021/06/05 00:57:12;;;;;;;5.65;1.55;;;;;;;;;;5103436;28;20051;-68
2021/06/05 00:59:39;;;;;;;4.85;1.35;;;;;;;;;;5112277;28;20439;-68
2021/06/05 01:02:07;;;;;;;4.00;1.15;;;;;;;;;;5105827;28;20099;-67
2021/06/05 01:04:34;;;;;;;4.65;0.95;;;;;;;;;;5103722;28;20029;-67
2021/06/05 01:07:24;;;;;;;4.78;1.00;;;;;;;;;;5110068;28;20055;-67
2021/06/05 01:09:58;;;;;;;4.40;1.20;;;;;;;;;;5101529;28;20038;-68
2021/06/05 01:12:37;;;;;;;3.97;0.80;;;;;;;;;;5104309;28;20368;-68
2021/06/05 01:15:16;;;;;;;5.60;1.50;;;;;;;;;;5105860;28;20024;-68
2021/06/05 01:17:44;;;;;;;2.15;0.70;;;;;;;;;;5106227;28;20555;-68
2021/06/05 01:20:29;;;;;;;11.07;3.10;;;;;;;;;;5105171;28;20024;-67
2021/06/05 01:23:19;;;;;;;33.22;10.02;;;;;;;;;;5095402;28;20031;-68
2021/06/05 01:25:49;;;;;;;10.80;3.25;;;;;;;;;;5095321;28;20050;-68
2021/06/05 01:28:23;;;;;;;27.13;9.38;;;;;;;;;;5108500;28;20554;-68
2021/06/05 01:30:51;;;;;;;8.57;3.65;;;;;;;;;;5109489;28;20049;-68
2021/06/05 01:33:20;;;;;;;7.97;2.00;;;;;;;;;;5095318;28;20068;-68
2021/06/05 01:35:47;;;;;;;4.75;1.40;;;;;;;;;;5101304;28;20047;-68
2021/06/05 01:38:15;;;;;;;6.22;1.35;;;;;;;;;;5109004;28;21072;-68
2021/06/05 01:40:43;;;;;;;8.02;3.28;;;;;;;;;;5103651;28;20484;-68
2021/06/05 01:43:11;;;;;;;5.43;1.05;;;;;;;;;;5105203;28;20028;-68
2021/06/05 01:45:41;;;;;;;4.00;1.38;;;;;;;;;;5110842;28;20527;-68
2021/06/05 01:48:09;;;;;;;2.70;0.80;;;;;;;;;;5101964;28;20444;-68
2021/06/05 01:50:37;;;;;;;5.45;1.10;;;;;;;;;;5105372;27;20487;-67
2021/06/05 01:53:10;;;;;;;3.38;0.82;;;;;;;;;;5100672;28;20055;-68
2021/06/05 01:55:43;;;;;;;5.05;1.10;;;;;;;;;;5108962;28;20019;-68
2021/06/05 01:58:13;;;;;;;4.60;1.02;;;;;;;;;;5105348;28;20063;-67
2021/06/05 02:00:43;;;;;;;1.95;0.68;;;;;;;;;;5110053;28;20031;-67
2021/06/05 02:03:10;;;;;;;10.52;0.90;;;;;;;;;;5106293;28;20028;-67
2021/06/05 02:05:38;;;;;;;3.35;0.60;;;;;;;;;;5100982;28;20421;-67
2021/06/05 02:08:06;;;;;;;4.45;0.63;;;;;;;;;;5103698;28;20077;-68
2021/06/05 02:10:34;;;;;;;9.60;1.10;;;;;;;;;;5110882;27;20035;-67
2021/06/05 02:13:02;;;;;;;4.07;0.90;;;;;;;;;;5110998;28;20046;-68
2021/06/05 02:15:29;;;;;;;4.55;1.17;;;;;;;;;;5093610;28;20122;-68
2021/06/05 02:17:58;;;;;;;2.78;0.60;;;;;;;;;;5110791;28;20380;-68
2021/06/05 02:20:29;;;;;;;2.67;1.10;;;;;;;;;;5106819;28;20024;-68
2021/06/05 02:22:58;;;;;;;2.58;0.57;;;;;;;;;;5114031;28;20024;-68
2021/06/05 02:25:26;;;;;;;1.77;0.50;;;;;;;;;;5113747;27;20024;-69
2021/06/05 02:27:57;;;;;;;2.13;0.63;;;;;;;;;;5109201;27;20082;-68
2021/06/05 02:30:26;;;;;;;3.28;0.90;;;;;;;;;;5114192;27;20024;-68
2021/06/05 02:32:53;;;;;;;3.22;0.68;;;;;;;;;;5112447;28;20080;-68
2021/06/05 02:35:24;;;;;;;2.50;0.70;;;;;;;;;;5102943;28;20035;-68
2021/06/05 02:37:51;;;;;;;1.10;0.50;;;;;;;;;;5100855;27;20028;-68
2021/06/05 02:40:20;;;;;;;2.80;0.75;;;;;;;;;;5094930;28;20028;-68
2021/06/05 02:42:47;;;;;;;1.90;0.57;;;;;;;;;;5099661;28;20031;-68
2021/06/05 02:45:27;;;;;;;3.05;0.63;;;;;;;;;;5100438;28;20024;-68
2021/06/05 02:47:59;;;;;;;1.75;0.65;;;;;;;;;;5099452;28;20031;-68
2021/06/05 02:50:38;;;;;;;1.60;0.75;;;;;;;;;;5110244;28;20026;-68
2021/06/05 02:53:05;;;;;;;1.77;0.65;;;;;;;;;;5109641;28;20024;-69
2021/06/05 02:55:32;;;;;;;3.35;0.50;;;;;;;;;;5112531;28;20498;-69
2021/06/05 02:58:00;;;;;;;2.53;0.60;;;;;;;;;;5105861;27;20196;-68
2021/06/05 03:00:32;;;;;;;1.98;0.40;;;;;;;;;;5097197;28;20072;-69
2021/06/05 03:02:59;;;;;;;2.13;0.60;;;;;;;;;;5111475;28;20020;-68
2021/06/05 03:05:27;;;;;;;2.15;0.38;;;;;;;;;;5102727;28;20057;-68
2021/06/05 03:07:54;;;;;;;1.08;0.40;;;;;;;;;;5099891;28;20046;-68
2021/06/05 03:10:23;;;;;;;1.42;0.40;;;;;;;;;;5104675;28;20019;-68
2021/06/05 03:12:50;;;;;;;2.50;0.50;;;;;;;;;;5111417;28;20016;-68
2021/06/05 03:15:18;;;;;;;2.20;0.40;;;;;;;;;;5106190;28;20023;-70
2021/06/05 03:17:45;;;;;;;3.08;0.98;;;;;;;;;;5110744;27;20100;-68
2021/06/05 03:20:14;;;;;;;1.90;0.40;;;;;;;;;;5107868;28;20115;-66
2021/06/05 03:22:41;;;;;;;1.63;0.50;;;;;;;;;;5107603;28;20032;-68
2021/06/05 03:25:08;;;;;;;3.90;0.77;;;;;;;;;;5108169;27;20049;-68
2021/06/05 03:27:35;;;;;;;3.03;0.43;;;;;;;;;;5110469;28;20024;-70
2021/06/05 03:30:03;;;;;;;2.03;0.45;;;;;;;;;;5101852;28;20032;-70
2021/06/05 03:32:30;;;;;;;4.90;1.05;;;;;;;;;;5108747;28;20522;-69
2021/06/05 03:34:57;;;;;;;1.55;0.40;;;;;;;;;;5113544;28;20040;-69
2021/06/05 03:37:24;;;;;;;0.90;0.40;;;;;;;;;;5104353;28;20038;-68
2021/06/05 03:39:52;;;;;;;3.85;0.70;;;;;;;;;;5095931;28;20488;-69
2021/06/05 03:42:19;;;;;;;2.85;0.75;;;;;;;;;;5108308;27;20027;-70
2021/06/05 03:44:46;;;;;;;3.85;1.10;;;;;;;;;;5108139;28;20399;-70
2021/06/05 03:47:18;;;;;;;2.00;0.60;;;;;;;;;;5102148;28;20028;-69
2021/06/05 03:49:46;;;;;;;3.25;1.10;;;;;;;;;;5105589;28;20075;-69
2021/06/05 03:52:13;;;;;;;6.15;1.15;;;;;;;;;;5108334;28;20024;-68
2021/06/05 03:54:40;;;;;;;2.28;0.70;;;;;;;;;;5099377;28;20015;-68
2021/06/05 03:57:07;;;;;;;2.80;1.00;;;;;;;;;;5103992;28;20027;-68
2021/06/05 03:59:34;;;;;;;1.75;0.60;;;;;;;;;;5101162;27;20494;-68
2021/06/05 04:02:01;;;;;;;2.05;0.73;;;;;;;;;;5105739;28;20061;-68
2021/06/05 04:04:28;;;;;;;2.63;0.73;;;;;;;;;;5083761;28;20157;-68
2021/06/05 04:06:55;;;;;;;2.15;0.75;;;;;;;;;;5107787;28;20024;-68
2021/06/05 04:09:22;;;;;;;2.85;0.90;;;;;;;;;;5098912;28;20092;-68
2021/06/05 04:11:50;;;;;;;1.98;0.55;;;;;;;;;;5105114;27;20515;-68
2021/06/05 04:14:17;;;;;;;4.55;0.73;;;;;;;;;;5107249;27;20107;-68
2021/06/05 04:16:44;;;;;;;4.15;0.88;;;;;;;;;;5108503;28;20022;-68
2021/06/05 04:19:12;;;;;;;1.58;0.60;;;;;;;;;;5111039;28;20034;-68
2021/06/05 04:21:40;;;;;;;3.17;0.93;;;;;;;;;;5099857;28;20028;-68
2021/06/05 04:24:07;;;;;;;3.15;1.15;;;;;;;;;;5100062;28;20051;-68
2021/06/05 04:26:34;;;;;;;2.38;0.70;;;;;;;;;;5088875;28;20035;-68
2021/06/05 04:29:01;;;;;;;2.85;0.75;;;;;;;;;;5112683;28;20012;-67
2021/06/05 04:31:28;;;;;;;2.05;0.77;;;;;;;;;;5112082;27;20016;-67
2021/06/05 04:33:56;;;;;;;2.72;0.77;;;;;;;;;;5112145;28;20103;-67
2021/06/05 04:36:23;;;;;;;1.85;0.60;;;;;;;;;;5110837;27;20077;-67
2021/06/05 04:38:52;;;;;;;4.78;0.77;;;;;;;;;;5107543;28;20047;-67
2021/06/05 04:41:20;;;;;;;1.52;0.70;;;;;;;;;;5102754;27;21143;-68
2021/06/05 04:43:47;;;;;;;1.77;0.80;;;;;;;;;;5099284;28;20069;-67
2021/06/05 04:46:15;;;;;;;7.05;0.70;;;;;;;;;;5099666;28;20160;-67
2021/06/05 04:48:43;;;;;;;3.58;1.10;;;;;;;;;;5110423;28;20380;-67
2021/06/05 04:51:11;;;;;;;3.17;1.00;;;;;;;;;;5096817;28;20567;-67
2021/06/05 04:53:38;;;;;;;3.10;1.08;;;;;;;;;;5091823;28;20074;-67
2021/06/05 04:56:05;;;;;;;2.38;0.80;;;;;;;;;;5097462;28;20068;-68
2021/06/05 04:58:32;;;;;;;3.25;0.60;;;;;;;;;;5093672;28;20069;-67
2021/06/05 05:01:00;;;;;;;3.63;1.08;;;;;;;;;;5100807;28;20388;-67
2021/06/05 05:03:28;;;;;;;3.72;0.80;;;;;;;;;;5094172;28;20028;-67
2021/06/05 05:05:57;;;;;;;1.20;0.60;;;;;;;;;;5097864;28;20039;-67
2021/06/05 05:08:24;;;;;;;1.42;0.60;;;;;;;;;;5091410;28;20020;-67
2021/06/05 05:10:52;;;;;;;3.38;0.60;;;;;;;;;;5100106;28;20043;-67
2021/06/05 05:13:21;;;;;;;1.70;0.50;;;;;;;;;;5109691;28;20020;-67
2021/06/05 05:15:49;;;;;;;3.08;0.80;;;;;;;;;;5089382;28;20027;-67
2021/06/05 05:18:16;;;;;;;1.98;0.60;;;;;;;;;;5106663;28;20035;-67
2021/06/05 05:20:45;;;;;;;2.47;0.40;;;;;;;;;;5110504;28;20024;-67
2021/06/05 05:23:12;;;;;;;2.30;0.50;;;;;;;;;;5098370;27;20652;-67
2021/06/05 05:25:41;;;;;;;1.67;0.50;;;;;;;;;;5108819;28;20033;-67
2021/06/05 05:28:08;;;;;;;4.25;0.60;;;;;;;;;;5114209;28;20054;-67
2021/06/05 05:30:38;;;;;;;2.15;0.50;;;;;;;;;;5104001;28;20024;-67
2021/06/05 05:33:08;;;;;;;3.33;0.60;;;;;;;;;;5099125;27;20031;-67
2021/06/05 05:35:36;;;;;;;2.13;0.50;;;;;;;;;;5114797;28;20046;-67
2021/06/05 05:38:05;;;;;;;2.20;0.98;;;;;;;;;;5107404;28;20050;-68
2021/06/05 05:40:32;;;;;;;2.42;0.82;;;;;;;;;;5097076;28;20081;-67
2021/06/05 05:42:59;;;;;;;1.23;0.68;;;;;;;;;;5109024;28;20036;-67
2021/06/05 05:45:26;;;;;;;3.65;0.52;;;;;;;;;;5096779;28;20024;-68
2021/06/05 05:47:57;;;;;;;3.08;0.70;;;;;;;;;;5094791;28;20040;-68
2021/06/05 05:50:24;;;;;;;3.55;1.17;;;;;;;;;;5099392;28;20138;-67
2021/06/05 05:52:51;;;;;;;2.92;0.50;;;;;;;;;;5103282;28;20031;-67
2021/06/05 05:55:19;;;;;;;1.58;0.55;;;;;;;;;;5107121;27;20015;-68
2021/06/05 05:57:48;;;;;;;2.78;0.50;;;;;;;;;;5096578;27;20028;-68
2021/06/05 06:00:18;;;;;;;2.72;0.88;;;;;;;;;;5095222;28;20495;-67
2021/06/05 06:02:46;;;;;;;4.55;0.50;;;;;;;;;;5115037;28;20491;-67
2021/06/05 06:05:13;;;;;;;3.13;0.70;;;;;;;;;;5111373;27;20024;-66
2021/06/05 06:07:41;;;;;;;1.00;0.40;;;;;;;;;;5095845;28;20046;-67
2021/06/05 06:10:10;;;;;;;2.15;0.60;;;;;;;;;;5096836;27;20024;-66
2021/06/05 06:12:37;;;;;;;3.22;0.60;;;;;;;;;;5100838;28;20020;-65
2021/06/05 06:15:11;;;;;;;1.83;0.40;;;;;;;;;;5102525;28;20076;-66
2021/06/05 06:17:38;;;;;;;2.15;0.60;;;;;;;;;;5098961;28;20028;-67
2021/06/05 06:20:06;;;;;;;1.70;0.40;;;;;;;;;;5094626;28;20020;-66
2021/06/05 06:22:36;;;;;;;2.38;0.40;;;;;;;;;;5099403;27;20028;-67
2021/06/05 06:25:08;;;;;;;0.80;0.50;;;;;;;;;;5094706;28;20039;-66
2021/06/05 06:27:35;;;;;;;6.10;1.20;;;;;;;;;;5104457;28;20070;-66
2021/06/05 06:30:02;;;;;;;4.38;0.85;;;;;;;;;;5100015;28;20020;-66
2021/06/05 06:32:30;;;;;;;3.45;1.27;;;;;;;;;;5080576;28;20106;-67
2021/06/05 06:34:57;;;;;;;1.40;0.55;;;;;;;;;;5103354;28;20066;-66
2021/06/05 06:37:24;;;;;;;4.75;1.67;;;;;;;;;;5104007;28;20042;-66
2021/06/05 06:39:51;;;;;;;3.38;1.10;;;;;;;;;;5107909;27;20381;-66
2021/06/05 06:42:18;;;;;;;3.35;1.40;;;;;;;;;;5101143;27;20069;-66
2021/06/05 06:44:45;;;;;;;2.88;0.90;;;;;;;;;;5098752;28;20023;-66
2021/06/05 06:47:12;;;;;;;2.35;1.02;;;;;;;;;;5104494;28;20384;-66
2021/06/05 06:49:39;;;;;;;7.00;1.00;;;;;;;;;;5103112;28;20020;-66
2021/06/05 06:52:07;;;;;;;3.78;1.15;;;;;;;;;;5103175;27;20028;-66
2021/06/05 06:54:34;;;;;;;3.80;1.08;;;;;;;;;;5113952;28;20044;-66
2021/06/05 06:57:01;;;;;;;4.25;1.10;;;;;;;;;;5107074;28;20028;-66
2021/06/05 06:59:28;;;;;;;4.75;1.42;;;;;;;;;;5106014;28;20058;-66
2021/06/05 07:01:55;;;;;;;4.40;1.65;;;;;;;;;;5105353;27;20011;-66
2021/06/05 07:04:22;;;;;;;4.85;1.52;;;;;;;;;;5114337;28;20027;-66
2021/06/05 07:06:49;;;;;;;6.38;1.35;;;;;;;;;;5107614;28;20503;-66
2021/06/05 07:09:16;;;;;;;5.72;1.73;;;;;;;;;;5104945;28;20028;-66
2021/06/05 07:11:43;;;;;;;5.38;1.65;;;;;;;;;;5101930;27;20019;-66
2021/06/05 07:14:11;;;;;;;5.25;2.28;;;;;;;;;;5112878;28;20099;-66
2021/06/05 07:16:38;;;;;;;5.50;1.48;;;;;;;;;;5108559;28;20023;-66
2021/06/05 07:19:07;;;;;;;6.07;2.03;;;;;;;;;;5107530;28;20019;-66
2021/06/05 07:21:34;;;;;;;7.20;2.53;;;;;;;;;;5112581;28;20051;-66
2021/06/05 07:24:01;;;;;;;6.32;2.15;;;;;;;;;;5113479;28;20347;-66
2021/06/05 07:26:29;;;;;;;7.47;2.05;;;;;;;;;;5110663;28;20023;-66
2021/06/05 07:28:58;;;;;;;7.57;2.13;;;;;;;;;;5112105;28;20507;-66
2021/06/05 07:31:50;;;;;;;9.98;2.03;;;;;;;;;;5106971;28;20039;-66
2021/06/05 07:34:18;;;;;;;9.60;2.67;;;;;;;;;;5092941;28;20477;-65
2021/06/05 07:36:48;;;;;;;7.18;2.58;;;;;;;;;;5107946;28;20036;-65
2021/06/05 07:39:17;;;;;;;9.43;2.40;;;;;;;;;;5104579;27;20421;-65
2021/06/05 07:41:44;;;;;;;9.82;2.78;;;;;;;;;;5088119;28;20513;-65
2021/06/05 07:44:12;;;;;;;11.00;3.70;;;;;;;;;;5100999;27;20052;-65
2021/06/05 07:46:43;;;;;;;12.07;3.90;;;;;;;;;;5098081;27;20032;-65
2021/06/05 07:49:10;;;;;;;11.40;3.35;;;;;;;;;;5104326;27;20020;-65
2021/06/05 07:51:37;;;;;;;10.63;3.65;;;;;;;;;;5110474;28;20157;-65
2021/06/05 07:54:05;;;;;;;10.52;3.65;;;;;;;;;;5103627;28;20106;-65
2021/06/05 07:56:32;;;;;;;14.02;3.75;;;;;;;;;;5100838;28;20078;-65
2021/06/05 07:58:59;;;;;;;8.48;3.58;;;;;;;;;;5103424;27;20153;-65
2021/06/05 08:01:27;;;;;;;12.57;5.15;;;;;;;;;;5099797;28;20023;-65
2021/06/05 08:03:54;;;;;;;12.13;4.22;;;;;;;;;;5110516;27;20092;-65
2021/06/05 08:06:22;;;;;;;8.32;4.20;;;;;;;;;;5103736;28;20020;-65
2021/06/05 08:08:50;;;;;;;8.23;4.15;;;;;;;;;;5109327;28;20036;-66
2021/06/05 08:11:18;;;;;;;8.93;5.05;;;;;;;;;;5095930;28;20074;-65
2021/06/05 08:13:45;;;;;;;12.20;6.75;;;;;;;;;;5103281;27;20076;-65
2021/06/05 08:16:12;;;;;;;18.48;7.88;;;;;;;;;;5099731;28;20062;-65
2021/06/05 08:18:39;;;;;;;13.63;6.38;;;;;;;;;;5105498;28;20392;-65
2021/06/05 08:21:12;;;;;;;7.63;3.15;;;;;;;;;;5111355;28;20499;-65
2021/06/05 08:23:40;;;;;;;10.93;6.15;;;;;;;;;;5103306;28;20362;-66
2021/06/05 08:26:10;;;;;;;12.23;4.03;;;;;;;;;;5092437;28;20527;-66
2021/06/05 08:28:37;;;;;;;6.82;3.35;;;;;;;;;;5103276;28;20479;-66
2021/06/05 08:31:06;;;;;;;7.28;3.00;;;;;;;;;;5112972;28;20540;-66
2021/06/05 08:33:33;;;;;;;6.85;3.10;;;;;;;;;;5106889;28;20118;-66
2021/06/05 08:36:00;;;;;;;7.82;3.50;;;;;;;;;;5112334;28;20100;-66
2021/06/05 08:38:29;;;;;;;8.68;4.15;;;;;;;;;;5094030;28;20046;-66
2021/06/05 08:40:56;;;;;;;8.88;3.50;;;;;;;;;;5093414;28;20024;-66
2021/06/05 08:43:32;;;;;;;8.98;4.15;;;;;;;;;;5112537;28;20049;-66
2021/06/05 08:46:03;;;;;;;12.32;4.95;;;;;;;;;;5112146;28;20046;-66
2021/06/05 08:48:30;;;;;;;10.27;4.68;;;;;;;;;;5112019;28;20556;-66
2021/06/05 08:51:10;;;;;;;12.60;6.03;;;;;;;;;;5111908;28;20039;-66
2021/06/05 08:53:37;;;;;;;8.57;5.72;;;;;;;;;;5093896;28;20479;-66
2021/06/05 08:56:06;;;;;;;13.27;7.60;;;;;;;;;;5111867;28;20491;-66
2021/06/05 08:58:36;;;;;;;12.82;7.15;;;;;;;;;;5094848;28;20093;-66
2021/06/05 09:01:06;;;;;;;12.30;7.22;;;;;;;;;;5091828;28;20021;-66
2021/06/05 09:03:34;;;;;;;7.95;4.82;;;;;;;;;;5110320;28;20020;-66
2021/06/05 09:06:21;;;;;;;7.82;5.50;;;;;;;;;;5090109;28;20024;-66
2021/06/05 09:08:49;;;;;;;12.32;5.47;;;;;;;;;;5092045;28;20066;-66
2021/06/05 09:11:17;;;;;;;9.10;4.80;;;;;;;;;;5091663;28;20016;-66
2021/06/05 09:13:44;;;;;;;8.88;4.50;;;;;;;;;;5093176;28;20069;-66
2021/06/05 09:16:24;;;;;;;8.85;4.32;;;;;;;;;;5112346;28;20027;-66
2021/06/05 09:18:59;;;;;;;4.95;3.47;;;;;;;;;;5110473;28;20093;-66
2021/06/05 09:21:46;;;;;;;11.35;5.97;;;;;;;;;;5092327;28;20047;-66
2021/06/05 09:24:14;;;;;;;28.65;9.38;;;;;;;;;;5111450;28;20043;-66
2021/06/05 09:26:42;;;;;;;10.57;4.80;;;;;;;;;;5112026;28;20380;-66
2021/06/05 09:29:19;;;;;;;13.02;5.68;;;;;;;;;;5110580;28;20028;-66
2021/06/05 09:31:55;;;;;;;10.98;5.55;;;;;;;;;;5092732;28;20034;-66
2021/06/05 09:34:25;;;;;;;10.77;4.93;;;;;;;;;;5110413;28;20146;-66
2021/06/05 09:36:52;;;;;;;13.32;6.28;;;;;;;;;;5111852;28;20020;-66
2021/06/05 09:39:36;;;;;;;20.80;8.73;;;;;;;;;;5111795;28;20098;-66
2021/06/05 09:42:03;;;;;;;18.80;8.18;;;;;;;;;;5112076;28;20023;-66
2021/06/05 09:44:38;;;;;;;14.55;7.85;;;;;;;;;;5111735;28;20032;-66
2021/06/05 09:47:09;;;;;;;20.88;7.82;;;;;;;;;;5111856;28;20027;-66
2021/06/05 09:49:46;;;;;;;21.95;8.88;;;;;;;;;;5111151;28;20099;-66
2021/06/05 09:52:13;;;;;;;16.13;7.03;;;;;;;;;;5112066;28;20023;-66
2021/06/05 09:54:42;;;;;;;15.93;7.70;;;;;;;;;;5111802;28;20016;-66
2021/06/05 09:57:17;;;;;;;16.48;6.55;;;;;;;;;;5111472;28;20024;-66
2021/06/05 09:59:44;;;;;;;9.57;5.32;;;;;;;;;;5111665;28;20016;-66
2021/06/05 10:02:22;;;;;;;14.57;5.68;;;;;;;;;;5103918;28;20064;-65
2021/06/05 10:05:07;;;;;;;8.65;5.40;;;;;;;;;;5091613;28;20043;-66
2021/06/05 10:07:35;;;;;;;8.55;5.25;;;;;;;;;;5092743;28;20425;-66
2021/06/05 10:10:06;;;;;;;8.68;5.75;;;;;;;;;;5093716;28;20064;-66
2021/06/05 10:12:36;;;;;;;8.77;5.30;;;;;;;;;;5094776;28;20332;-66
2021/06/05 10:15:03;;;;;;;9.00;4.75;;;;;;;;;;5110103;28;20094;-66
2021/06/05 10:17:50;;;;;;;6.15;4.38;;;;;;;;;;5114961;28;20039;-66
2021/06/05 10:20:23;;;;;;;8.20;3.83;;;;;;;;;;5095184;28;20020;-66
2021/06/05 10:22:52;;;;;;;9.55;3.78;;;;;;;;;;5100750;28;20019;-66
2021/06/05 10:25:26;;;;;;;5.53;3.42;;;;;;;;;;5115254;28;20024;-66
2021/06/05 10:27:53;;;;;;;12.45;4.97;;;;;;;;;;5115295;28;20020;-66
2021/06/05 10:30:28;;;;;;;6.78;4.53;;;;;;;;;;5115162;28;20027;-66
2021/06/05 10:32:55;;;;;;;7.28;5.22;;;;;;;;;;5114853;28;20019;-65
2021/06/05 10:35:29;;;;;;;6.13;4.40;;;;;;;;;;5114377;28;20487;-65
2021/06/05 10:38:17;;;;;;;6.68;4.32;;;;;;;;;;5114790;28;20036;-65
2021/06/05 10:40:47;;;;;;;6.80;4.68;;;;;;;;;;5096009;28;20040;-65
2021/06/05 10:43:17;;;;;;;5.50;4.20;;;;;;;;;;5094294;28;20174;-65
2021/06/05 10:45:46;;;;;;;8.68;5.93;;;;;;;;;;5094374;28;20073;-65
2021/06/05 10:48:20;;;;;;;9.60;5.07;;;;;;;;;;5096185;28;20038;-66
2021/06/05 10:50:49;;;;;;;6.00;4.32;;;;;;;;;;5114411;28;20011;-65
2021/06/05 10:53:19;;;;;;;7.97;4.75;;;;;;;;;;5114708;28;20073;-65
2021/06/05 10:55:51;;;;;;;6.68;5.15;;;;;;;;;;5112589;28;20027;-65
2021/06/05 10:58:25;;;;;;;6.88;5.05;;;;;;;;;;5094121;28;20480;-65
2021/06/05 11:01:00;;;;;;;7.20;4.93;;;;;;;;;;5094355;28;20520;-65
2021/06/05 11:03:28;;;;;;;7.38;5.22;;;;;;;;;;5112062;28;20494;-65
2021/06/05 11:06:10;;;;;;;8.05;5.20;;;;;;;;;;5095811;28;20104;-65
2021/06/05 11:08:37;;;;;;;7.15;5.60;;;;;;;;;;5113905;28;20046;-65
2021/06/05 11:11:17;;;;;;;6.88;4.45;;;;;;;;;;5112370;28;20030;-65
2021/06/05 11:13:44;;;;;;;6.85;4.93;;;;;;;;;;5113509;28;20026;-65
2021/06/05 11:16:11;;;;;;;8.18;5.25;;;;;;;;;;5107974;28;20499;-65
2021/06/05 11:18:38;;;;;;;12.85;6.85;;;;;;;;;;5110787;28;20028;-65
2021/06/05 11:21:24;;;;;;;10.88;7.05;;;;;;;;;;5113688;28;20045;-65
2021/06/05 11:23:57;;;;;;;9.32;6.55;;;;;;;;;;5092870;28;21710;-65
2021/06/05 11:26:39;;;;;;;10.43;6.10;;;;;;;;;;5113597;28;20023;-65
2021/06/05 11:29:07;;;;;;;10.50;6.28;;;;;;;;;;5113991;28;20109;-65
2021/06/05 11:31:42;;;;;;;8.05;5.57;;;;;;;;;;5096773;28;20405;-65
2021/06/05 11:34:10;;;;;;;9.60;6.57;;;;;;;;;;5094325;27;20129;-65
2021/06/05 11:36:37;;;;;;;7.38;5.53;;;;;;;;;;5113163;28;20024;-65
2021/06/05 11:39:27;;;;;;;12.00;6.20;;;;;;;;;;5113521;28;20499;-65
2021/06/05 11:41:55;;;;;;;12.18;6.55;;;;;;;;;;5103483;28;20051;-65
2021/06/05 11:44:25;;;;;;;9.68;7.40;;;;;;;;;;5113305;28;20024;-65
2021/06/05 11:47:12;;;;;;;11.50;7.88;;;;;;;;;;5110529;28;20019;-65
2021/06/05 11:49:43;;;;;;;14.57;7.85;;;;;;;;;;5093064;28;20024;-65
2021/06/05 11:52:28;;;;;;;11.65;8.30;;;;;;;;;;5092905;28;20024;-65
2021/06/05 11:54:59;;;;;;;13.52;9.13;;;;;;;;;;5092780;28;20016;-65
2021/06/05 11:57:28;;;;;;;13.13;9.02;;;;;;;;;;5092504;28;20103;-65
2021/06/05 11:59:58;;;;;;;18.33;11.02;;;;;;;;;;5092845;28;20022;-65
2021/06/05 12:02:29;;;;;;;17.77;11.43;;;;;;;;;;5101976;28;20137;-65
2021/06/05 12:05:16;;;;;;;18.38;11.48;;;;;;;;;;5109233;28;20073;-65
2021/06/05 12:07:44;;;;;;;18.50;12.05;;;;;;;;;;5112602;28;20030;-65
2021/06/05 12:10:12;;;;;;;14.95;10.50;;;;;;;;;;5112478;28;20023;-65
2021/06/05 12:12:45;;;;;;;16.80;12.25;;;;;;;;;;5112726;28;20099;-65
2021/06/05 12:15:12;;;;;;;17.83;11.13;;;;;;;;;;5113184;28;20336;-65
2021/06/05 12:17:44;;;;;;;15.90;11.93;;;;;;;;;;5112581;28;20450;-64
2021/06/05 12:20:11;;;;;;;15.45;10.95;;;;;;;;;;5112957;28;20099;-65
2021/06/05 12:22:38;;;;;;;18.92;12.57;;;;;;;;;;5095008;28;20020;-65
2021/06/05 12:25:08;;;;;;;17.52;12.38;;;;;;;;;;5092306;28;20031;-65
2021/06/05 12:27:37;;;;;;;19.92;13.00;;;;;;;;;;5104101;28;20487;-65
2021/06/05 12:30:10;;;;;;;17.70;12.13;;;;;;;;;;5111789;28;20118;-65
2021/06/05 12:32:38;;;;;;;18.88;12.63;;;;;;;;;;5112133;28;20020;-65
2021/06/05 12:35:34;;;;;;;16.27;12.82;;;;;;;;;;5112458;28;20112;-65
2021/06/05 12:38:01;;;;;;;17.60;11.48;;;;;;;;;;5091358;28;20090;-65
2021/06/05 12:40:41;;;;;;;14.07;11.70;;;;;;;;;;5092174;28;20099;-66
2021/06/05 12:43:10;;;;;;;15.13;12.40;;;;;;;;;;5092059;28;20350;-65
2021/06/05 12:45:37;;;;;;;15.85;12.23;;;;;;;;;;5091973;28;20012;-66
2021/06/05 12:48:05;;;;;;;16.50;12.30;;;;;;;;;;5091873;28;20070;-66
2021/06/05 12:50:35;;;;;;;19.20;12.77;;;;;;;;;;5108046;28;20028;-66
2021/06/05 12:53:03;;;;;;;18.17;12.40;;;;;;;;;;5112318;28;20483;-66
2021/06/05 12:55:30;;;;;;;20.17;12.38;;;;;;;;;;5109557;28;20027;-66
2021/06/05 12:58:20;;;;;;;20.85;12.27;;;;;;;;;;5109934;28;20391;-66
2021/06/05 13:00:51;;;;;;;18.55;12.52;;;;;;;;;;5093233;28;20038;-65
2021/06/05 13:03:19;;;;;;;21.75;13.13;;;;;;;;;;5103390;28;20028;-65
2021/06/05 13:06:05;;;;;;;18.88;13.98;;;;;;;;;;5076133;28;20114;-66
2021/06/05 13:08:35;;;;;;;18.92;11.75;;;;;;;;;;5105843;28;20031;-65
2021/06/05 13:11:03;;;;;;;19.05;12.63;;;;;;;;;;5094870;28;20034;-65
2021/06/05 13:13:31;;;;;;;16.80;11.32;;;;;;;;;;5104698;28;20023;-66
2021/06/05 13:15:58;;;;;;;15.15;11.30;;;;;;;;;;5105529;28;20023;-65
2021/06/05 13:18:26;;;;;;;17.35;11.45;;;;;;;;;;5106615;28;20042;-66
2021/06/05 13:20:58;;;;;;;20.77;12.15;;;;;;;;;;5100449;28;20020;-66
2021/06/05 13:23:44;;;;;;;14.43;10.88;;;;;;;;;;5095786;28;20020;-66
2021/06/05 13:26:17;;;;;;;16.15;10.05;;;;;;;;;;5080391;28;20024;-66
2021/06/05 13:28:44;;;;;;;14.88;9.85;;;;;;;;;;5105176;28;20024;-66
2021/06/05 13:31:11;;;;;;;13.65;10.32;;;;;;;;;;5101768;28;20066;-66
2021/06/05 13:33:49;;;;;;;12.32;9.75;;;;;;;;;;5109316;28;20019;-66
2021/06/05 13:36:29;;;;;;;15.80;10.48;;;;;;;;;;5101731;28;20060;-65
2021/06/05 13:39:17;;;;;;;16.88;11.85;;;;;;;;;;5103991;28;20039;-65
2021/06/05 13:41:44;;;;;;;15.55;10.23;;;;;;;;;;5098701;28;20016;-66
2021/06/05 13:44:12;;;;;;;13.65;9.57;;;;;;;;;;5108521;27;20555;-66
2021/06/05 13:46:40;;;;;;;17.65;9.85;;;;;;;;;;5106188;28;20024;-65
2021/06/05 13:49:07;;;;;;;13.23;9.95;;;;;;;;;;5098522;27;20031;-65
2021/06/05 13:51:35;;;;;;;13.48;9.00;;;;;;;;;;5107343;27;20027;-66
2021/06/05 13:54:03;;;;;;;12.75;8.73;;;;;;;;;;5092824;28;20039;-64
2021/06/05 13:56:31;;;;;;;13.25;7.90;;;;;;;;;;5103089;27;20031;-64
2021/06/05 13:58:58;;;;;;;12.00;8.30;;;;;;;;;;5107565;28;20458;-65
2021/06/05 14:01:31;;;;;;;12.43;8.40;;;;;;;;;;5105038;27;20020;-66
2021/06/05 14:03:59;;;;;;;11.95;8.23;;;;;;;;;;5109592;27;20043;-64
2021/06/05 14:06:26;;;;;;;13.32;8.45;;;;;;;;;;5106012;27;20057;-67
2021/06/05 14:08:53;;;;;;;14.43;8.82;;;;;;;;;;5112125;27;20111;-65
2021/06/05 14:11:22;;;;;;;20.05;10.15;;;;;;;;;;5110124;27;20102;-65
2021/06/05 14:13:51;;;;;;;15.20;9.13;;;;;;;;;;5107680;28;20012;-66
2021/06/05 14:16:19;;;;;;;16.85;10.63;;;;;;;;;;5110515;28;20024;-65
2021/06/05 14:18:47;;;;;;;16.42;10.70;;;;;;;;;;5111110;28;20032;-66
2021/06/05 14:21:15;;;;;;;18.65;9.43;;;;;;;;;;5089464;28;20369;-65
2021/06/05 14:23:42;;;;;;;14.13;8.90;;;;;;;;;;5102482;27;20028;-66
2021/06/05 14:26:11;;;;;;;15.85;9.90;;;;;;;;;;5089454;28;20044;-65
2021/06/05 14:28:39;;;;;;;15.55;8.95;;;;;;;;;;5106536;27;20506;-66
2021/06/05 14:31:06;;;;;;;30.10;9.82;;;;;;;;;;5102685;28;20057;-65
2021/06/05 14:33:33;;;;;;;17.45;9.32;;;;;;;;;;5105261;27;20023;-65
2021/06/05 14:36:01;;;;;;;21.67;9.02;;;;;;;;;;5106361;27;20141;-65
2021/06/05 14:38:29;;;;;;;21.60;9.45;;;;;;;;;;5098079;27;20032;-65
2021/06/05 14:40:57;;;;;;;21.40;9.60;;;;;;;;;;5106065;27;20534;-64
2021/06/05 14:43:25;;;;;;;28.90;10.05;;;;;;;;;;5112435;27;20470;-65
2021/06/05 14:45:54;;;;;;;23.08;9.32;;;;;;;;;;5105819;28;20027;-65
2021/06/05 14:48:22;;;;;;;19.20;8.68;;;;;;;;;;5109837;28;20471;-64
2021/06/05 14:50:49;;;;;;;20.65;9.57;;;;;;;;;;5100953;27;20033;-65